sensor_id;sensor_type;location;lat;lon;timestamp;temperature;humidity
2995;DHT22;35277;49.890;8.222;2023-07-24T00:02:05;26.80;62.20
2995;DHT22;35277;49.890;8.222;2023-07-24T00:04:34;26.70;62.10
2995;DHT22;35277;49.890;8.222;2023-07-24T00:07:02;26.70;62.10
2995;DHT22;35277;49.890;8.222;2023-07-24T00:09:30;26.70;62.10
2995;DHT22;35277;49.890;8.222;2023-07-24T00:11:58;26.70;62.10
2995;DHT22;35277;49.890;8.222;2023-07-24T00:14:26;26.70;62.10
2995;DHT22;35277;49.890;8.222;2023-07-24T00:16:54;26.70;62.10
2995;DHT22;35277;49.890;8.222;2023-07-24T00:19:22;26.80;62.20
2995;DHT22;35277;49.890;8.222;2023-07-24T00:21:51;26.70;62.10
2995;DHT22;35277;49.890;8.222;2023-07-24T00:24:18;26.70;62.10
2995;DHT22;35277;49.890;8.222;2023-07-24T00:26:46;26.70;62.10
2995;DHT22;35277;49.890;8.222;2023-07-24T00:29:14;26.70;62.20
2995;DHT22;35277;49.890;8.222;2023-07-24T00:31:42;26.70;62.10
2995;DHT22;35277;49.890;8.222;2023-07-24T00:34:10;26.70;62.20
2995;DHT22;35277;49.890;8.222;2023-07-24T00:36:39;26.70;62.20
2995;DHT22;35277;49.890;8.222;2023-07-24T00:39:08;26.70;62.90
2995;DHT22;35277;49.890;8.222;2023-07-24T00:41:36;26.70;62.10
2995;DHT22;35277;49.890;8.222;2023-07-24T00:44:04;26.70;62.10
2995;DHT22;35277;49.890;8.222;2023-07-24T00:46:32;26.70;62.10
2995;DHT22;35277;49.890;8.222;2023-07-24T00:49:02;26.70;62.10
2995;DHT22;35277;49.890;8.222;2023-07-24T00:51:33;26.70;62.20
2995;DHT22;35277;49.890;8.222;2023-07-24T00:54:02;26.80;62.20
2995;DHT22;35277;49.890;8.222;2023-07-24T00:56:32;26.70;62.10
2995;DHT22;35277;49.890;8.222;2023-07-24T00:59:00;26.70;62.10
2995;DHT22;35277;49.890;8.222;2023-07-24T01:01:28;26.70;62.10
2995;DHT22;35277;49.890;8.222;2023-07-24T01:03:57;26.70;62.20
2995;DHT22;35277;49.890;8.222;2023-07-24T01:06:25;26.70;62.20
2995;DHT22;35277;49.890;8.222;2023-07-24T01:08:54;26.70;62.10
2995;DHT22;35277;49.890;8.222;2023-07-24T01:11:26;26.70;62.10
2995;DHT22;35277;49.890;8.222;2023-07-24T01:14:01;26.70;62.20
2995;DHT22;35277;49.890;8.222;2023-07-24T01:16:36;26.70;62.10
2995;DHT22;35277;49.890;8.222;2023-07-24T01:19:12;26.70;62.20
2995;DHT22;35277;49.890;8.222;2023-07-24T01:21:45;26.70;62.20
2995;DHT22;35277;49.890;8.222;2023-07-24T01:24:24;26.70;62.20
2995;DHT22;35277;49.890;8.222;2023-07-24T01:26:59;26.70;62.20
2995;DHT22;35277;49.890;8.222;2023-07-24T01:29:26;26.70;62.10
2995;DHT22;35277;49.890;8.222;2023-07-24T01:31:54;26.70;62.10
2995;DHT22;35277;49.890;8.222;2023-07-24T01:34:22;26.70;62.20
2995;DHT22;35277;49.890;8.222;2023-07-24T01:36:50;26.70;62.10
2995;DHT22;35277;49.890;8.222;2023-07-24T01:39:20;26.70;62.20
2995;DHT22;35277;49.890;8.222;2023-07-24T01:41:49;26.70;62.20
2995;DHT22;35277;49.890;8.222;2023-07-24T01:44:19;26.70;62.20
2995;DHT22;35277;49.890;8.222;2023-07-24T01:46:47;26.70;62.20
2995;DHT22;35277;49.890;8.222;2023-07-24T01:49:15;26.70;62.20
2995;DHT22;35277;49.890;8.222;2023-07-24T01:51:43;26.70;62.10
2995;DHT22;35277;49.890;8.222;2023-07-24T01:54:11;26.70;62.10
2995;DHT22;35277;49.890;8.222;2023-07-24T01:56:39;26.70;62.10
2995;DHT22;35277;49.890;8.222;2023-07-24T01:59:07;26.70;62.10
2995;DHT22;35277;49.890;8.222;2023-07-24T02:01:36;26.70;62.20
2995;DHT22;35277;49.890;8.222;2023-07-24T02:04:04;26.70;62.20
2995;DHT22;35277;49.890;8.222;2023-07-24T02:06:32;26.70;62.10
2995;DHT22;35277;49.890;8.222;2023-07-24T02:09:00;26.70;62.10
2995;DHT22;35277;49.890;8.222;2023-07-24T02:11:27;26.70;62.20
2995;DHT22;35277;49.890;8.222;2023-07-24T02:13:57;26.70;62.20
2995;DHT22;35277;49.890;8.222;2023-07-24T02:16:25;26.70;62.20
2995;DHT22;35277;49.890;8.222;2023-07-24T02:18:55;26.70;62.20
2995;DHT22;35277;49.890;8.222;2023-07-24T02:21:23;26.70;62.20
2995;DHT22;35277;49.890;8.222;2023-07-24T02:23:54;26.70;62.20
2995;DHT22;35277;49.890;8.222;2023-07-24T02:26:21;26.70;62.20
2995;DHT22;35277;49.890;8.222;2023-07-24T02:28:49;26.70;62.20
2995;DHT22;35277;49.890;8.222;2023-07-24T02:31:16;26.70;62.20
2995;DHT22;35277;49.890;8.222;2023-07-24T02:33:44;26.70;62.20
2995;DHT22;35277;49.890;8.222;2023-07-24T02:36:15;26.70;62.20
2995;DHT22;35277;49.890;8.222;2023-07-24T02:38:43;26.70;62.20
2995;DHT22;35277;49.890;8.222;2023-07-24T02:41:11;26.70;62.20
2995;DHT22;35277;49.890;8.222;2023-07-24T02:43:38;26.70;62.20
2995;DHT22;35277;49.890;8.222;2023-07-24T02:46:06;26.70;62.20
2995;DHT22;35277;49.890;8.222;2023-07-24T02:48:34;26.70;62.30
2995;DHT22;35277;49.890;8.222;2023-07-24T02:51:02;26.70;62.20
2995;DHT22;35277;49.890;8.222;2023-07-24T02:53:32;26.70;62.20
2995;DHT22;35277;49.890;8.222;2023-07-24T02:56:01;26.70;62.20
2995;DHT22;35277;49.890;8.222;2023-07-24T02:58:28;26.70;62.20
2995;DHT22;35277;49.890;8.222;2023-07-24T03:01:02;26.70;62.30
2995;DHT22;35277;49.890;8.222;2023-07-24T03:03:30;26.70;62.20
2995;DHT22;35277;49.890;8.222;2023-07-24T03:05:58;26.70;62.20
2995;DHT22;35277;49.890;8.222;2023-07-24T03:08:26;26.70;62.20
2995;DHT22;35277;49.890;8.222;2023-07-24T03:10:57;26.70;62.20
2995;DHT22;35277;49.890;8.222;2023-07-24T03:13:26;26.70;62.20
2995;DHT22;35277;49.890;8.222;2023-07-24T03:15:55;26.70;62.20
2995;DHT22;35277;49.890;8.222;2023-07-24T03:18:23;26.70;62.30
2995;DHT22;35277;49.890;8.222;2023-07-24T03:20:51;26.70;62.30
2995;DHT22;35277;49.890;8.222;2023-07-24T03:23:19;26.70;62.30
2995;DHT22;35277;49.890;8.222;2023-07-24T03:25:47;26.70;62.20
2995;DHT22;35277;49.890;8.222;2023-07-24T03:28:17;26.70;62.30
2995;DHT22;35277;49.890;8.222;2023-07-24T03:30:45;26.70;62.30
2995;DHT22;35277;49.890;8.222;2023-07-24T03:33:13;26.70;62.20
2995;DHT22;35277;49.890;8.222;2023-07-24T03:35:41;26.70;62.30
2995;DHT22;35277;49.890;8.222;2023-07-24T03:38:08;26.70;62.30
2995;DHT22;35277;49.890;8.222;2023-07-24T03:40:36;26.70;62.30
2995;DHT22;35277;49.890;8.222;2023-07-24T03:43:04;26.70;63.10
2995;DHT22;35277;49.890;8.222;2023-07-24T03:45:33;26.70;62.30
2995;DHT22;35277;49.890;8.222;2023-07-24T03:48:01;26.70;62.30
2995;DHT22;35277;49.890;8.222;2023-07-24T03:50:29;26.70;62.30
2995;DHT22;35277;49.890;8.222;2023-07-24T03:52:57;26.70;63.10
2995;DHT22;35277;49.890;8.222;2023-07-24T03:55:25;26.70;62.30
2995;DHT22;35277;49.890;8.222;2023-07-24T03:57:53;26.70;62.40
2995;DHT22;35277;49.890;8.222;2023-07-24T04:00:20;26.70;62.30
2995;DHT22;35277;49.890;8.222;2023-07-24T04:02:49;26.60;62.30
2995;DHT22;35277;49.890;8.222;2023-07-24T04:05:17;26.60;62.30
2995;DHT22;35277;49.890;8.222;2023-07-24T04:07:45;26.60;62.40
2995;DHT22;35277;49.890;8.222;2023-07-24T04:10:13;26.60;62.40
2995;DHT22;35277;49.890;8.222;2023-07-24T04:12:41;26.60;62.40
2995;DHT22;35277;49.890;8.222;2023-07-24T04:15:09;26.60;62.40
2995;DHT22;35277;49.890;8.222;2023-07-24T04:17:37;26.60;62.50
2995;DHT22;35277;49.890;8.222;2023-07-24T04:20:08;26.60;62.50
2995;DHT22;35277;49.890;8.222;2023-07-24T04:22:36;26.60;62.50
2995;DHT22;35277;49.890;8.222;2023-07-24T04:25:04;26.60;62.50
2995;DHT22;35277;49.890;8.222;2023-07-24T04:27:32;26.60;62.60
2995;DHT22;35277;49.890;8.222;2023-07-24T04:30:00;26.60;62.50
2995;DHT22;35277;49.890;8.222;2023-07-24T04:32:28;26.60;62.50
2995;DHT22;35277;49.890;8.222;2023-07-24T04:34:56;26.60;62.60
2995;DHT22;35277;49.890;8.222;2023-07-24T04:37:25;26.60;62.60
2995;DHT22;35277;49.890;8.222;2023-07-24T04:39:53;26.60;62.60
2995;DHT22;35277;49.890;8.222;2023-07-24T04:42:21;26.60;62.60
2995;DHT22;35277;49.890;8.222;2023-07-24T04:44:48;26.50;62.60
2995;DHT22;35277;49.890;8.222;2023-07-24T04:47:18;26.60;62.70
2995;DHT22;35277;49.890;8.222;2023-07-24T04:49:45;26.60;62.80
2995;DHT22;35277;49.890;8.222;2023-07-24T04:52:13;26.50;62.80
2995;DHT22;35277;49.890;8.222;2023-07-24T04:54:42;26.50;62.90
2995;DHT22;35277;49.890;8.222;2023-07-24T04:57:10;26.50;63.00
2995;DHT22;35277;49.890;8.222;2023-07-24T04:59:38;26.40;63.10
2995;DHT22;35277;49.890;8.222;2023-07-24T05:02:06;26.40;63.20
2995;DHT22;35277;49.890;8.222;2023-07-24T05:04:34;26.40;63.40
2995;DHT22;35277;49.890;8.222;2023-07-24T05:07:02;26.30;63.50
2995;DHT22;35277;49.890;8.222;2023-07-24T05:09:29;26.30;63.70
2995;DHT22;35277;49.890;8.222;2023-07-24T05:11:58;26.20;63.90
2995;DHT22;35277;49.890;8.222;2023-07-24T05:14:26;26.10;64.00
2995;DHT22;35277;49.890;8.222;2023-07-24T05:16:54;26.10;64.00
2995;DHT22;35277;49.890;8.222;2023-07-24T05:19:22;26.10;64.10
2995;DHT22;35277;49.890;8.222;2023-07-24T05:21:50;26.20;64.30
2995;DHT22;35277;49.890;8.222;2023-07-24T05:24:18;26.20;64.40
2995;DHT22;35277;49.890;8.222;2023-07-24T05:26:45;26.20;64.50
2995;DHT22;35277;49.890;8.222;2023-07-24T05:29:15;26.30;64.80
2995;DHT22;35277;49.890;8.222;2023-07-24T05:31:42;26.30;64.80
2995;DHT22;35277;49.890;8.222;2023-07-24T05:34:11;26.30;64.80
2995;DHT22;35277;49.890;8.222;2023-07-24T05:36:40;26.30;64.90
2995;DHT22;35277;49.890;8.222;2023-07-24T05:39:08;26.30;64.90
2995;DHT22;35277;49.890;8.222;2023-07-24T05:41:36;26.30;64.90
2995;DHT22;35277;49.890;8.222;2023-07-24T05:44:06;26.30;65.00
2995;DHT22;35277;49.890;8.222;2023-07-24T05:46:35;26.30;65.00
2995;DHT22;35277;49.890;8.222;2023-07-24T05:49:03;26.30;65.00
2995;DHT22;35277;49.890;8.222;2023-07-24T05:51:31;26.30;65.10
2995;DHT22;35277;49.890;8.222;2023-07-24T05:53:59;26.30;65.20
2995;DHT22;35277;49.890;8.222;2023-07-24T05:56:27;26.30;65.20
2995;DHT22;35277;49.890;8.222;2023-07-24T05:58:55;26.30;65.30
2995;DHT22;35277;49.890;8.222;2023-07-24T06:01:23;26.30;65.30
2995;DHT22;35277;49.890;8.222;2023-07-24T06:03:52;26.30;65.40
2995;DHT22;35277;49.890;8.222;2023-07-24T06:06:20;26.30;65.30
2995;DHT22;35277;49.890;8.222;2023-07-24T06:08:48;26.30;65.40
2995;DHT22;35277;49.890;8.222;2023-07-24T06:11:17;26.30;65.40
2995;DHT22;35277;49.890;8.222;2023-07-24T06:13:45;26.20;65.40
2995;DHT22;35277;49.890;8.222;2023-07-24T06:16:13;26.20;65.50
2995;DHT22;35277;49.890;8.222;2023-07-24T06:18:41;26.20;65.60
2995;DHT22;35277;49.890;8.222;2023-07-24T06:21:10;26.20;65.60
2995;DHT22;35277;49.890;8.222;2023-07-24T06:23:38;26.20;65.70
2995;DHT22;35277;49.890;8.222;2023-07-24T06:26:06;26.20;65.70
2995;DHT22;35277;49.890;8.222;2023-07-24T06:28:34;26.20;65.80
2995;DHT22;35277;49.890;8.222;2023-07-24T06:31:02;26.20;65.80
2995;DHT22;35277;49.890;8.222;2023-07-24T06:33:29;26.20;65.80
2995;DHT22;35277;49.890;8.222;2023-07-24T06:35:57;26.20;65.90
2995;DHT22;35277;49.890;8.222;2023-07-24T06:38:26;26.20;65.90
2995;DHT22;35277;49.890;8.222;2023-07-24T06:40:54;26.20;66.00
2995;DHT22;35277;49.890;8.222;2023-07-24T06:43:22;26.20;65.90
2995;DHT22;35277;49.890;8.222;2023-07-24T06:45:50;26.20;66.00
2995;DHT22;35277;49.890;8.222;2023-07-24T06:48:18;26.20;65.90
2995;DHT22;35277;49.890;8.222;2023-07-24T06:50:46;26.30;65.90
2995;DHT22;35277;49.890;8.222;2023-07-24T06:53:13;26.30;65.90
2995;DHT22;35277;49.890;8.222;2023-07-24T06:55:43;26.30;65.80
2995;DHT22;35277;49.890;8.222;2023-07-24T06:58:10;26.30;65.70
2995;DHT22;35277;49.890;8.222;2023-07-24T07:00:38;26.40;65.70
2995;DHT22;35277;49.890;8.222;2023-07-24T07:03:06;26.40;65.60
2995;DHT22;35277;49.890;8.222;2023-07-24T07:05:34;26.40;65.60
2995;DHT22;35277;49.890;8.222;2023-07-24T07:08:02;26.40;65.60
2995;DHT22;35277;49.890;8.222;2023-07-24T07:10:31;26.40;65.60
2995;DHT22;35277;49.890;8.222;2023-07-24T07:13:00;26.50;65.60
2995;DHT22;35277;49.890;8.222;2023-07-24T07:15:27;26.50;65.60
2995;DHT22;35277;49.890;8.222;2023-07-24T07:17:54;26.50;65.60
2995;DHT22;35277;49.890;8.222;2023-07-24T07:20:22;26.50;65.60
2995;DHT22;35277;49.890;8.222;2023-07-24T07:22:50;26.50;65.60
2995;DHT22;35277;49.890;8.222;2023-07-24T07:25:18;26.50;65.60
2995;DHT22;35277;49.890;8.222;2023-07-24T07:27:46;26.50;65.60
2995;DHT22;35277;49.890;8.222;2023-07-24T07:30:15;26.50;65.50
2995;DHT22;35277;49.890;8.222;2023-07-24T07:32:43;26.50;65.60
2995;DHT22;35277;49.890;8.222;2023-07-24T07:35:11;26.60;65.70
2995;DHT22;35277;49.890;8.222;2023-07-24T07:37:39;26.60;66.00
2995;DHT22;35277;49.890;8.222;2023-07-24T07:40:07;26.60;66.20
2995;DHT22;35277;49.890;8.222;2023-07-24T07:42:35;26.60;66.60
2995;DHT22;35277;49.890;8.222;2023-07-24T07:45:06;26.60;66.90
2995;DHT22;35277;49.890;8.222;2023-07-24T07:47:36;26.60;67.10
2995;DHT22;35277;49.890;8.222;2023-07-24T07:50:04;26.60;67.20
2995;DHT22;35277;49.890;8.222;2023-07-24T07:52:32;26.70;67.30
2995;DHT22;35277;49.890;8.222;2023-07-24T07:55:00;26.70;67.30
2995;DHT22;35277;49.890;8.222;2023-07-24T07:57:28;26.70;67.30
2995;DHT22;35277;49.890;8.222;2023-07-24T07:59:55;26.70;67.20
2995;DHT22;35277;49.890;8.222;2023-07-24T08:02:23;26.70;67.30
2995;DHT22;35277;49.890;8.222;2023-07-24T08:04:52;26.70;67.50
2995;DHT22;35277;49.890;8.222;2023-07-24T08:07:20;26.70;67.50
2995;DHT22;35277;49.890;8.222;2023-07-24T08:09:48;26.70;67.50
2995;DHT22;35277;49.890;8.222;2023-07-24T08:12:16;26.70;67.60
2995;DHT22;35277;49.890;8.222;2023-07-24T08:14:44;26.70;67.60
2995;DHT22;35277;49.890;8.222;2023-07-24T08:17:11;26.70;67.60
2995;DHT22;35277;49.890;8.222;2023-07-24T08:19:39;26.80;67.50
2995;DHT22;35277;49.890;8.222;2023-07-24T08:22:08;26.80;67.50
2995;DHT22;35277;49.890;8.222;2023-07-24T08:24:36;26.80;67.50
2995;DHT22;35277;49.890;8.222;2023-07-24T08:27:04;26.80;67.50
2995;DHT22;35277;49.890;8.222;2023-07-24T08:29:32;26.90;67.60
2995;DHT22;35277;49.890;8.222;2023-07-24T08:32:03;26.80;67.50
2995;DHT22;35277;49.890;8.222;2023-07-24T08:34:31;26.90;67.50
2995;DHT22;35277;49.890;8.222;2023-07-24T08:36:59;26.90;67.50
2995;DHT22;35277;49.890;8.222;2023-07-24T08:39:28;26.90;67.50
2995;DHT22;35277;49.890;8.222;2023-07-24T08:41:56;26.90;67.50
2995;DHT22;35277;49.890;8.222;2023-07-24T08:44:25;26.90;67.50
2995;DHT22;35277;49.890;8.222;2023-07-24T08:46:57;26.90;67.50
2995;DHT22;35277;49.890;8.222;2023-07-24T08:49:26;26.90;67.50
2995;DHT22;35277;49.890;8.222;2023-07-24T08:51:54;27.00;67.50
2995;DHT22;35277;49.890;8.222;2023-07-24T08:54:27;27.00;67.50
2995;DHT22;35277;49.890;8.222;2023-07-24T08:56:55;27.00;67.50
2995;DHT22;35277;49.890;8.222;2023-07-24T08:59:23;27.00;67.50
2995;DHT22;35277;49.890;8.222;2023-07-24T09:01:51;27.00;67.50
2995;DHT22;35277;49.890;8.222;2023-07-24T09:04:19;27.00;67.50
2995;DHT22;35277;49.890;8.222;2023-07-24T09:06:47;27.00;67.50
2995;DHT22;35277;49.890;8.222;2023-07-24T09:09:16;27.00;67.50
2995;DHT22;35277;49.890;8.222;2023-07-24T09:11:49;27.00;67.50
2995;DHT22;35277;49.890;8.222;2023-07-24T09:14:21;27.00;67.60
2995;DHT22;35277;49.890;8.222;2023-07-24T09:16:50;27.00;67.70
2995;DHT22;35277;49.890;8.222;2023-07-24T09:19:19;27.00;67.70
2995;DHT22;35277;49.890;8.222;2023-07-24T09:21:50;27.00;67.80
2995;DHT22;35277;49.890;8.222;2023-07-24T09:24:18;27.00;67.80
2995;DHT22;35277;49.890;8.222;2023-07-24T09:26:48;27.00;67.90
2995;DHT22;35277;49.890;8.222;2023-07-24T09:29:17;27.00;67.90
2995;DHT22;35277;49.890;8.222;2023-07-24T09:31:45;27.00;67.90
2995;DHT22;35277;49.890;8.222;2023-07-24T09:34:18;27.10;68.10
2995;DHT22;35277;49.890;8.222;2023-07-24T09:36:46;27.00;68.10
2995;DHT22;35277;49.890;8.222;2023-07-24T09:39:14;27.10;68.10
2995;DHT22;35277;49.890;8.222;2023-07-24T09:41:42;27.10;68.10
2995;DHT22;35277;49.890;8.222;2023-07-24T09:44:12;27.10;68.10
2995;DHT22;35277;49.890;8.222;2023-07-24T09:46:41;27.10;68.10
2995;DHT22;35277;49.890;8.222;2023-07-24T09:49:30;27.10;68.10
2995;DHT22;35277;49.890;8.222;2023-07-24T09:52:03;27.10;68.10
2995;DHT22;35277;49.890;8.222;2023-07-24T09:54:37;27.10;68.00
2995;DHT22;35277;49.890;8.222;2023-07-24T09:57:13;27.10;68.00
2995;DHT22;35277;49.890;8.222;2023-07-24T09:59:49;27.10;68.00
2995;DHT22;35277;49.890;8.222;2023-07-24T10:02:19;27.10;67.90
2995;DHT22;35277;49.890;8.222;2023-07-24T10:04:46;27.10;67.90
2995;DHT22;35277;49.890;8.222;2023-07-24T10:07:15;27.10;67.80
2995;DHT22;35277;49.890;8.222;2023-07-24T10:09:43;27.10;67.80
2995;DHT22;35277;49.890;8.222;2023-07-24T10:12:11;27.10;67.80
2995;DHT22;35277;49.890;8.222;2023-07-24T10:14:40;27.10;67.70
2995;DHT22;35277;49.890;8.222;2023-07-24T10:17:09;27.10;67.70
2995;DHT22;35277;49.890;8.222;2023-07-24T10:19:40;27.10;67.70
2995;DHT22;35277;49.890;8.222;2023-07-24T10:22:16;27.10;67.70
2995;DHT22;35277;49.890;8.222;2023-07-24T10:24:44;27.10;67.60
2995;DHT22;35277;49.890;8.222;2023-07-24T10:27:12;27.10;67.60
2995;DHT22;35277;49.890;8.222;2023-07-24T10:29:39;27.10;67.60
2995;DHT22;35277;49.890;8.222;2023-07-24T10:32:18;27.10;67.60
2995;DHT22;35277;49.890;8.222;2023-07-24T10:34:55;27.10;67.60
2995;DHT22;35277;49.890;8.222;2023-07-24T10:37:32;27.10;67.50
2995;DHT22;35277;49.890;8.222;2023-07-24T10:40:00;27.10;67.40
2995;DHT22;35277;49.890;8.222;2023-07-24T10:42:30;27.10;67.40
2995;DHT22;35277;49.890;8.222;2023-07-24T10:45:07;27.10;67.40
2995;DHT22;35277;49.890;8.222;2023-07-24T10:47:36;27.10;67.30
2995;DHT22;35277;49.890;8.222;2023-07-24T10:50:05;27.10;67.20
2995;DHT22;35277;49.890;8.222;2023-07-24T10:52:33;27.10;67.20
2995;DHT22;35277;49.890;8.222;2023-07-24T10:55:02;27.10;67.20
2995;DHT22;35277;49.890;8.222;2023-07-24T10:57:30;27.10;67.30
2995;DHT22;35277;49.890;8.222;2023-07-24T10:59:59;27.10;67.10
2995;DHT22;35277;49.890;8.222;2023-07-24T11:02:27;27.10;67.00
2995;DHT22;35277;49.890;8.222;2023-07-24T11:04:59;27.10;66.70
2995;DHT22;35277;49.890;8.222;2023-07-24T11:07:32;27.10;66.50
2995;DHT22;35277;49.890;8.222;2023-07-24T11:10:00;27.00;66.40
2995;DHT22;35277;49.890;8.222;2023-07-24T11:12:28;27.00;66.50
2995;DHT22;35277;49.890;8.222;2023-07-24T11:14:58;27.00;66.70
2995;DHT22;35277;49.890;8.222;2023-07-24T11:17:33;27.00;66.90
2995;DHT22;35277;49.890;8.222;2023-07-24T11:20:08;27.00;67.10
2995;DHT22;35277;49.890;8.222;2023-07-24T11:22:38;27.00;67.30
2995;DHT22;35277;49.890;8.222;2023-07-24T11:25:08;26.90;67.30
2995;DHT22;35277;49.890;8.222;2023-07-24T11:27:39;27.00;67.50
2995;DHT22;35277;49.890;8.222;2023-07-24T11:30:09;26.90;67.50
2995;DHT22;35277;49.890;8.222;2023-07-24T11:32:38;26.90;67.50
2995;DHT22;35277;49.890;8.222;2023-07-24T11:35:08;26.90;67.50
2995;DHT22;35277;49.890;8.222;2023-07-24T11:37:36;26.90;67.60
2995;DHT22;35277;49.890;8.222;2023-07-24T11:40:05;26.90;67.60
2995;DHT22;35277;49.890;8.222;2023-07-24T11:42:38;26.90;67.60
2995;DHT22;35277;49.890;8.222;2023-07-24T11:45:07;26.90;67.60
2995;DHT22;35277;49.890;8.222;2023-07-24T11:47:43;26.90;67.60
2995;DHT22;35277;49.890;8.222;2023-07-24T11:50:13;26.90;67.60
2995;DHT22;35277;49.890;8.222;2023-07-24T11:52:42;26.90;67.60
2995;DHT22;35277;49.890;8.222;2023-07-24T11:55:11;26.90;67.70
2995;DHT22;35277;49.890;8.222;2023-07-24T11:57:39;26.90;67.70
2995;DHT22;35277;49.890;8.222;2023-07-24T12:00:22;26.90;67.90
2995;DHT22;35277;49.890;8.222;2023-07-24T12:02:51;26.90;67.90
2995;DHT22;35277;49.890;8.222;2023-07-24T12:05:20;26.90;67.90
2995;DHT22;35277;49.890;8.222;2023-07-24T12:07:48;26.90;67.90
2995;DHT22;35277;49.890;8.222;2023-07-24T12:10:25;26.90;67.80
2995;DHT22;35277;49.890;8.222;2023-07-24T12:12:55;26.90;67.90
2995;DHT22;35277;49.890;8.222;2023-07-24T12:15:25;26.90;67.80
2995;DHT22;35277;49.890;8.222;2023-07-24T12:17:54;26.90;67.70
2995;DHT22;35277;49.890;8.222;2023-07-24T12:20:24;26.90;67.50
2995;DHT22;35277;49.890;8.222;2023-07-24T12:22:52;27.00;67.50
2995;DHT22;35277;49.890;8.222;2023-07-24T12:25:20;26.90;67.30
2995;DHT22;35277;49.890;8.222;2023-07-24T12:27:48;26.90;67.20
2995;DHT22;35277;49.890;8.222;2023-07-24T12:30:16;27.00;67.30
2995;DHT22;35277;49.890;8.222;2023-07-24T12:32:45;27.00;67.30
2995;DHT22;35277;49.890;8.222;2023-07-24T12:35:13;27.00;67.20
2995;DHT22;35277;49.890;8.222;2023-07-24T12:37:44;27.00;68.00
2995;DHT22;35277;49.890;8.222;2023-07-24T12:40:12;27.00;67.20
2995;DHT22;35277;49.890;8.222;2023-07-24T12:42:40;27.10;67.20
2995;DHT22;35277;49.890;8.222;2023-07-24T12:45:09;27.00;67.20
2995;DHT22;35277;49.890;8.222;2023-07-24T12:47:36;27.10;67.20
2995;DHT22;35277;49.890;8.222;2023-07-24T12:50:05;27.00;67.20
2995;DHT22;35277;49.890;8.222;2023-07-24T12:52:34;27.00;67.20
2995;DHT22;35277;49.890;8.222;2023-07-24T12:55:04;27.10;67.20
2995;DHT22;35277;49.890;8.222;2023-07-24T12:57:32;27.00;67.20
2995;DHT22;35277;49.890;8.222;2023-07-24T12:59:59;27.00;67.20
2995;DHT22;35277;49.890;8.222;2023-07-24T13:02:27;27.00;67.20
2995;DHT22;35277;49.890;8.222;2023-07-24T13:04:55;27.00;67.20
2995;DHT22;35277;49.890;8.222;2023-07-24T13:07:23;27.00;67.20
2995;DHT22;35277;49.890;8.222;2023-07-24T13:09:51;27.00;67.30
2995;DHT22;35277;49.890;8.222;2023-07-24T13:12:20;27.00;67.30
2995;DHT22;35277;49.890;8.222;2023-07-24T13:14:48;27.00;67.30
2995;DHT22;35277;49.890;8.222;2023-07-24T13:17:16;27.10;67.40
2995;DHT22;35277;49.890;8.222;2023-07-24T13:19:44;27.00;67.40
2995;DHT22;35277;49.890;8.222;2023-07-24T13:22:12;27.00;67.40
2995;DHT22;35277;49.890;8.222;2023-07-24T13:24:39;27.00;67.90
2995;DHT22;35277;49.890;8.222;2023-07-24T13:27:07;27.00;67.80
2995;DHT22;35277;49.890;8.222;2023-07-24T13:29:36;27.00;68.20
2995;DHT22;35277;49.890;8.222;2023-07-24T13:32:05;27.00;68.60
2995;DHT22;35277;49.890;8.222;2023-07-24T13:34:32;26.90;68.80
2995;DHT22;35277;49.890;8.222;2023-07-24T13:37:00;26.90;69.70
2995;DHT22;35277;49.890;8.222;2023-07-24T13:39:28;26.90;68.90
2995;DHT22;35277;49.890;8.222;2023-07-24T13:41:58;26.90;69.00
2995;DHT22;35277;49.890;8.222;2023-07-24T13:44:25;26.90;69.00
2995;DHT22;35277;49.890;8.222;2023-07-24T13:46:55;27.00;69.10
2995;DHT22;35277;49.890;8.222;2023-07-24T13:49:22;27.00;69.20
2995;DHT22;35277;49.890;8.222;2023-07-24T13:51:50;27.00;69.20
2995;DHT22;35277;49.890;8.222;2023-07-24T13:54:18;27.00;69.20
2995;DHT22;35277;49.890;8.222;2023-07-24T13:56:46;27.00;69.20
2995;DHT22;35277;49.890;8.222;2023-07-24T13:59:13;27.00;69.20
2995;DHT22;35277;49.890;8.222;2023-07-24T14:01:41;27.00;69.20
2995;DHT22;35277;49.890;8.222;2023-07-24T14:04:10;27.00;69.20
2995;DHT22;35277;49.890;8.222;2023-07-24T14:06:39;27.00;69.20
2995;DHT22;35277;49.890;8.222;2023-07-24T14:09:07;27.00;69.10
2995;DHT22;35277;49.890;8.222;2023-07-24T14:11:35;27.10;69.30
2995;DHT22;35277;49.890;8.222;2023-07-24T14:14:03;27.10;70.10
2995;DHT22;35277;49.890;8.222;2023-07-24T14:16:31;27.10;69.30
2995;DHT22;35277;49.890;8.222;2023-07-24T14:18:59;27.10;69.30
2995;DHT22;35277;49.890;8.222;2023-07-24T14:21:28;27.10;69.20
2995;DHT22;35277;49.890;8.222;2023-07-24T14:23:56;27.10;69.30
2995;DHT22;35277;49.890;8.222;2023-07-24T14:26:24;27.10;69.30
2995;DHT22;35277;49.890;8.222;2023-07-24T14:28:52;27.10;69.30
2995;DHT22;35277;49.890;8.222;2023-07-24T14:31:22;27.10;69.30
2995;DHT22;35277;49.890;8.222;2023-07-24T14:33:51;27.10;69.30
2995;DHT22;35277;49.890;8.222;2023-07-24T14:36:18;27.10;69.30
2995;DHT22;35277;49.890;8.222;2023-07-24T14:38:48;27.10;69.40
2995;DHT22;35277;49.890;8.222;2023-07-24T14:41:16;27.10;69.50
2995;DHT22;35277;49.890;8.222;2023-07-24T14:43:44;27.10;69.80
2995;DHT22;35277;49.890;8.222;2023-07-24T14:46:12;27.10;70.00
2995;DHT22;35277;49.890;8.222;2023-07-24T14:48:39;27.20;70.40
2995;DHT22;35277;49.890;8.222;2023-07-24T14:51:07;27.20;70.60
2995;DHT22;35277;49.890;8.222;2023-07-24T14:53:35;27.20;70.80
2995;DHT22;35277;49.890;8.222;2023-07-24T14:56:05;27.20;71.00
2995;DHT22;35277;49.890;8.222;2023-07-24T14:58:33;27.20;71.20
2995;DHT22;35277;49.890;8.222;2023-07-24T15:01:00;27.20;71.40
2995;DHT22;35277;49.890;8.222;2023-07-24T15:03:28;27.20;71.50
2995;DHT22;35277;49.890;8.222;2023-07-24T15:05:56;27.20;71.60
2995;DHT22;35277;49.890;8.222;2023-07-24T15:08:30;27.20;71.70
2995;DHT22;35277;49.890;8.222;2023-07-24T15:10:57;27.20;71.80
2995;DHT22;35277;49.890;8.222;2023-07-24T15:13:27;27.20;71.80
2995;DHT22;35277;49.890;8.222;2023-07-24T15:15:55;27.20;71.90
2995;DHT22;35277;49.890;8.222;2023-07-24T15:18:23;27.20;72.00
2995;DHT22;35277;49.890;8.222;2023-07-24T15:20:51;27.20;72.00
2995;DHT22;35277;49.890;8.222;2023-07-24T15:23:20;27.20;72.00
2995;DHT22;35277;49.890;8.222;2023-07-24T15:25:48;27.20;72.00
2995;DHT22;35277;49.890;8.222;2023-07-24T15:28:15;27.20;72.00
2995;DHT22;35277;49.890;8.222;2023-07-24T15:30:44;27.20;72.00
2995;DHT22;35277;49.890;8.222;2023-07-24T15:33:12;27.20;72.10
2995;DHT22;35277;49.890;8.222;2023-07-24T15:35:40;27.20;72.10
2995;DHT22;35277;49.890;8.222;2023-07-24T15:38:08;27.20;72.10
2995;DHT22;35277;49.890;8.222;2023-07-24T15:40:38;27.30;72.20
2995;DHT22;35277;49.890;8.222;2023-07-24T15:43:06;27.30;72.20
2995;DHT22;35277;49.890;8.222;2023-07-24T15:45:34;27.30;72.20
2995;DHT22;35277;49.890;8.222;2023-07-24T15:48:04;27.30;72.30
2995;DHT22;35277;49.890;8.222;2023-07-24T15:50:32;27.30;72.40
2995;DHT22;35277;49.890;8.222;2023-07-24T15:53:00;27.30;72.30
2995;DHT22;35277;49.890;8.222;2023-07-24T15:55:28;27.30;72.30